createdAt,value
2023-01-13T00:00:27.807Z,99798.19
2023-01-13T00:02:55.524Z,99804.16
2023-01-13T00:05:23.193Z,99798.69
2023-01-13T00:07:50.912Z,99801.94
2023-01-13T00:10:18.812Z,99787.75
2023-01-13T00:12:46.506Z,99794.91
2023-01-13T00:15:14.434Z,99794.00
2023-01-13T00:17:43.507Z,99801.69
2023-01-13T00:20:12.421Z,99786.13
2023-01-13T00:22:40.168Z,99800.56
2023-01-13T00:25:08.482Z,99792.94
2023-01-13T00:27:36.120Z,99796.22
2023-01-13T00:30:04.434Z,99796.44
2023-01-13T00:32:32.237Z,99805.16
2023-01-13T00:35:01.500Z,99801.31
2023-01-13T00:37:29.242Z,99795.38
2023-01-13T00:39:57.854Z,99796.19
2023-01-13T00:42:43.369Z,99790.38
2023-01-13T00:45:11.818Z,99787.41
2023-01-13T00:47:39.519Z,99790.41
2023-01-13T00:50:09.829Z,99787.63
2023-01-13T00:52:37.593Z,99792.00
2023-01-13T00:55:05.937Z,99794.44
2023-01-13T00:57:33.624Z,99800.19
2023-01-13T01:00:01.295Z,99788.22
2023-01-13T01:02:29.014Z,99793.13
2023-01-13T01:04:56.748Z,99802.63
2023-01-13T01:07:25.769Z,99789.78
2023-01-13T01:09:53.465Z,99796.56
2023-01-13T01:12:21.192Z,99796.53
2023-01-13T01:14:48.874Z,99808.03
2023-01-13T01:17:16.573Z,99808.28
2023-01-13T01:19:44.311Z,99807.47
2023-01-13T01:22:12.028Z,99805.03
2023-01-13T01:24:41.105Z,99811.53
2023-01-13T01:27:08.854Z,99806.66
2023-01-13T01:29:36.581Z,99807.75
2023-01-13T01:32:04.310Z,99797.94
2023-01-13T01:34:32.177Z,99803.56
2023-01-13T01:36:59.839Z,99801.44
2023-01-13T01:39:27.648Z,99801.13
2023-01-13T01:42:13.994Z,99792.69
2023-01-13T01:45:04.219Z,99782.56
2023-01-13T01:47:33.397Z,99787.22
2023-01-13T01:50:04.291Z,99805.56
2023-01-13T01:52:35.696Z,99790.66
2023-01-13T01:55:10.222Z,99802.41
2023-01-13T01:57:43.644Z,99792.31
2023-01-13T02:00:12.620Z,99784.34
2023-01-13T02:02:42.266Z,99785.72
2023-01-13T02:05:10.679Z,99784.53
2023-01-13T02:07:40.919Z,99770.34
2023-01-13T02:10:12.908Z,99779.66
2023-01-13T02:12:46.066Z,99770.84
2023-01-13T02:15:16.577Z,99780.94
2023-01-13T02:17:57.433Z,99782.56
2023-01-13T02:20:40.791Z,99774.41
2023-01-13T02:23:59.687Z,99772.56
2023-01-13T02:27:10.414Z,99777.34
2023-01-13T02:30:12.052Z,99772.94
2023-01-13T02:32:49.792Z,99758.97
2023-01-13T02:35:25.421Z,99772.88
2023-01-13T02:37:55.089Z,99766.41
2023-01-13T02:40:26.838Z,99760.66
2023-01-13T02:43:18.531Z,99761.97
2023-01-13T02:45:53.753Z,99765.38
2023-01-13T02:48:24.702Z,99763.91
2023-01-13T02:51:03.490Z,99764.44
2023-01-13T02:53:36.628Z,99761.81
2023-01-13T02:56:06.580Z,99772.56
2023-01-13T02:58:37.546Z,99773.69
2023-01-13T03:01:06.706Z,99767.75
2023-01-13T03:03:34.424Z,99765.63
2023-01-13T03:06:14.015Z,99766.28
2023-01-13T03:08:48.699Z,99765.09
2023-01-13T03:11:18.526Z,99764.00
2023-01-13T03:13:58.941Z,99759.63
2023-01-13T03:16:46.048Z,99761.00
2023-01-13T03:19:21.734Z,99760.44
2023-01-13T03:21:54.640Z,99761.00
2023-01-13T03:24:28.954Z,99750.34
2023-01-13T03:27:03.464Z,99739.56
2023-01-13T03:29:37.017Z,99738.59
2023-01-13T03:32:11.367Z,99746.81
2023-01-13T03:34:44.187Z,99748.97
2023-01-13T03:37:14.924Z,99756.00
2023-01-13T03:39:48.553Z,99742.91
2023-01-13T03:42:19.908Z,99744.59
2023-01-13T03:44:52.618Z,99748.38
2023-01-13T03:47:26.413Z,99751.41
2023-01-13T03:49:58.354Z,99757.25
2023-01-13T03:52:29.059Z,99750.72
2023-01-13T03:54:59.585Z,99742.97
2023-01-13T03:57:32.218Z,99743.84
2023-01-13T04:00:03.852Z,99742.72
2023-01-13T04:02:43.210Z,99759.06
2023-01-13T04:05:11.911Z,99751.19
2023-01-13T04:07:48.906Z,99750.72
2023-01-13T04:10:20.798Z,99739.28
2023-01-13T04:13:04.081Z,99740.91
2023-01-13T04:15:36.036Z,99740.06
2023-01-13T04:18:11.501Z,99740.50
2023-01-13T04:20:40.752Z,99735.63
2023-01-13T04:23:08.593Z,99735.19
2023-01-13T04:25:36.586Z,99735.44
2023-01-13T04:28:04.587Z,99750.41
2023-01-13T04:30:32.547Z,99741.94
2023-01-13T04:33:00.706Z,99742.00
2023-01-13T04:35:29.707Z,99742.72
2023-01-13T04:37:57.375Z,99731.63
2023-01-13T04:40:25.060Z,99744.34
2023-01-13T04:42:52.691Z,99744.34
2023-01-13T04:45:20.401Z,99745.53
2023-01-13T04:47:48.591Z,99749.16
2023-01-13T04:50:19.437Z,99748.56
2023-01-13T04:52:49.401Z,99755.38
2023-01-13T04:55:17.980Z,99743.09
2023-01-13T04:57:46.123Z,99750.03
2023-01-13T05:00:16.142Z,99752.41
2023-01-13T05:02:43.860Z,99757.94
2023-01-13T05:05:12.061Z,99758.53
2023-01-13T05:07:39.710Z,99754.22
2023-01-13T05:10:10.131Z,99754.16
2023-01-13T05:12:55.527Z,99755.00
2023-01-13T05:15:40.931Z,99762.63
2023-01-13T05:18:08.909Z,99771.41
2023-01-13T05:20:36.567Z,99766.66
2023-01-13T05:23:22.194Z,99763.47
2023-01-13T05:25:51.501Z,99764.75
2023-01-13T05:28:19.241Z,99768.00
2023-01-13T05:30:51.043Z,99764.25
2023-01-13T05:33:21.273Z,99761.19
2023-01-13T05:35:49.221Z,99754.78
2023-01-13T05:38:18.563Z,99753.75
2023-01-13T05:41:04.166Z,99754.69
2023-01-13T05:43:34.683Z,99763.75
2023-01-13T05:46:03.720Z,99761.41
2023-01-13T05:48:33.231Z,99757.84
2023-01-13T05:51:02.149Z,99750.25
2023-01-13T05:53:30.262Z,99754.13
2023-01-13T05:55:57.952Z,99765.00
2023-01-13T05:58:27.691Z,99760.63
2023-01-13T06:01:00.421Z,99774.25
2023-01-13T06:03:28.068Z,99778.13
2023-01-13T06:05:58.721Z,99778.91
2023-01-13T06:08:26.601Z,99792.72
2023-01-13T06:10:54.374Z,99787.97
2023-01-13T06:13:22.081Z,99783.59
2023-01-13T06:15:49.764Z,99778.31
2023-01-13T06:18:18.845Z,99784.06
2023-01-13T06:20:48.029Z,99797.69
2023-01-13T06:23:15.762Z,99794.25
2023-01-13T06:25:47.687Z,99796.75
2023-01-13T06:28:15.474Z,99792.97
2023-01-13T06:30:46.882Z,99800.38
2023-01-13T06:33:18.313Z,99804.75
2023-01-13T06:35:53.563Z,99807.91
2023-01-13T06:38:23.467Z,99803.28
2023-01-13T06:40:51.299Z,99808.53
2023-01-13T06:43:18.084Z,99807.28
2023-01-13T06:45:52.018Z,99801.94
2023-01-13T06:48:21.511Z,99801.25
2023-01-13T06:50:50.476Z,99804.28
2023-01-13T06:53:18.377Z,99802.34
2023-01-13T06:55:46.005Z,99800.09
2023-01-13T06:58:13.692Z,99782.25
2023-01-13T07:00:41.558Z,99778.63
2023-01-13T07:03:11.130Z,99752.44
2023-01-13T07:05:39.520Z,99783.34
2023-01-13T07:08:09.431Z,99787.97
2023-01-13T07:10:38.147Z,99798.63
2023-01-13T07:13:23.802Z,99788.75
2023-01-13T07:15:56.196Z,99798.16
2023-01-13T07:18:24.299Z,99784.97
2023-01-13T07:20:56.440Z,99791.28
2023-01-13T07:23:26.559Z,99798.44
2023-01-13T07:25:56.686Z,99788.66
2023-01-13T07:28:24.741Z,99785.22
2023-01-13T07:30:52.873Z,99782.25
2023-01-13T07:33:20.859Z,99757.78
2023-01-13T07:35:49.784Z,99776.19
2023-01-13T07:38:17.481Z,99782.84
2023-01-13T07:40:46.516Z,99802.50
2023-01-13T07:43:31.719Z,99778.47
2023-01-13T07:45:59.849Z,99774.63
2023-01-13T07:48:28.138Z,99797.34
2023-01-13T07:50:56.372Z,99797.34
2023-01-13T07:53:25.951Z,99790.34
2023-01-13T07:55:57.808Z,99806.06
2023-01-13T07:58:26.103Z,99821.56
2023-01-13T08:00:54.588Z,99830.22
2023-01-13T08:03:22.881Z,99838.19
2023-01-13T08:05:50.958Z,99827.63
2023-01-13T08:08:19.035Z,99830.34
2023-01-13T08:10:46.774Z,99836.94
2023-01-13T08:13:20.199Z,99847.88
2023-01-13T08:15:50.323Z,99866.72
2023-01-13T08:18:21.119Z,99869.22
2023-01-13T08:20:49.745Z,99865.50
2023-01-13T08:23:18.217Z,99862.94
2023-01-13T08:25:46.042Z,99862.50
2023-01-13T08:28:14.463Z,99869.63
2023-01-13T08:30:44.030Z,99870.91
2023-01-13T08:33:13.097Z,99889.44
2023-01-13T08:35:42.747Z,99880.94
2023-01-13T08:38:10.737Z,99874.69
2023-01-13T08:40:40.904Z,99856.94
2023-01-13T08:43:08.545Z,99858.22
2023-01-13T08:45:36.341Z,99849.78
2023-01-13T08:48:06.203Z,99847.03
2023-01-13T08:50:34.144Z,99841.00
2023-01-13T08:53:02.027Z,99856.59
2023-01-13T08:55:29.748Z,99850.16
2023-01-13T08:58:14.124Z,99857.19
2023-01-13T09:00:43.218Z,99891.91
2023-01-13T09:03:12.353Z,99904.53
2023-01-13T09:05:40.091Z,99897.38
2023-01-13T09:08:07.811Z,99897.97
2023-01-13T09:10:35.976Z,99888.81
2023-01-13T09:13:11.711Z,99902.63
2023-01-13T09:15:40.147Z,99870.44
2023-01-13T09:18:07.941Z,99841.16
2023-01-13T09:20:37.015Z,99787.56
2023-01-13T09:23:06.078Z,99729.13
2023-01-13T09:25:36.524Z,99778.31
2023-01-13T09:28:05.882Z,99810.56
2023-01-13T09:30:33.637Z,99811.25
2023-01-13T09:33:18.971Z,99874.25
2023-01-13T09:35:47.978Z,99879.97
2023-01-13T09:38:15.687Z,99866.63
2023-01-13T09:40:43.803Z,99856.19
2023-01-13T09:43:37.698Z,99851.66
2023-01-13T09:46:33.036Z,99846.06
2023-01-13T09:49:03.593Z,99832.84
2023-01-13T09:51:35.112Z,99840.81
2023-01-13T09:54:11.956Z,99841.41
2023-01-13T09:56:39.620Z,99841.69
2023-01-13T09:59:11.615Z,99861.69
2023-01-13T10:01:47.490Z,99859.31
2023-01-13T10:04:16.541Z,99863.69
2023-01-13T10:06:50.849Z,99864.00
2023-01-13T10:09:23.826Z,99868.63
2023-01-13T10:12:10.837Z,99865.38
2023-01-13T10:14:43.268Z,99871.53
2023-01-13T10:17:19.968Z,99863.25
2023-01-13T10:19:51.586Z,99857.28
2023-01-13T10:22:43.031Z,99867.22
2023-01-13T10:25:25.559Z,99877.88
2023-01-13T10:27:56.404Z,99885.19
2023-01-13T10:30:31.325Z,99886.44
2023-01-13T10:33:02.755Z,99872.00
2023-01-13T10:35:54.398Z,99871.94
2023-01-13T10:38:25.810Z,99870.13
2023-01-13T10:40:55.453Z,99878.84
2023-01-13T10:43:24.088Z,99881.91
2023-01-13T10:45:57.888Z,99889.19
2023-01-13T10:48:34.132Z,99874.72
2023-01-13T10:51:21.620Z,99881.56
2023-01-13T10:53:59.214Z,99878.00
2023-01-13T10:56:29.950Z,99876.31
2023-01-13T10:59:23.266Z,99864.38
2023-01-13T11:02:10.205Z,99890.81
2023-01-13T11:05:03.562Z,99877.16
2023-01-13T11:07:34.913Z,99882.03
2023-01-13T11:10:19.032Z,99878.50
2023-01-13T11:12:55.149Z,99903.38
2023-01-13T11:15:25.962Z,99893.81
2023-01-13T11:18:01.329Z,99897.94
2023-01-13T11:20:33.854Z,99903.88
2023-01-13T11:23:08.016Z,99906.63
2023-01-13T11:25:43.000Z,99899.78
2023-01-13T11:28:32.363Z,99902.38
2023-01-13T11:31:09.530Z,99897.97
2023-01-13T11:33:41.664Z,99896.03
2023-01-13T11:36:15.012Z,99904.41
2023-01-13T11:38:47.840Z,99917.75
2023-01-13T11:41:29.529Z,99901.91
2023-01-13T11:44:07.291Z,99917.09
2023-01-13T11:46:35.118Z,99903.31
2023-01-13T11:49:04.040Z,99917.75
2023-01-13T11:51:37.380Z,99906.81
2023-01-13T11:54:27.830Z,99909.38
2023-01-13T11:57:12.150Z,99925.34
2023-01-13T12:00:21.695Z,99920.50
2023-01-13T12:02:58.051Z,99909.66
2023-01-13T12:05:35.185Z,99924.59
2023-01-13T12:08:18.862Z,99922.25
2023-01-13T12:10:59.203Z,99911.22
2023-01-13T12:13:37.577Z,99906.59
2023-01-13T12:16:27.468Z,99928.97
2023-01-13T12:19:18.065Z,99911.41
2023-01-13T12:22:03.304Z,99912.38
2023-01-13T12:24:37.492Z,99931.47
2023-01-13T12:27:11.381Z,99929.03
2023-01-13T12:29:40.755Z,99917.56
2023-01-13T12:32:14.028Z,99927.06
2023-01-13T12:34:55.979Z,99929.94
2023-01-13T12:37:30.839Z,99934.69
2023-01-13T12:40:20.681Z,99936.09
2023-01-13T12:43:13.453Z,99934.53
2023-01-13T12:45:42.628Z,99939.41
2023-01-13T12:48:57.830Z,99931.19
2023-01-13T12:51:29.043Z,99939.13
2023-01-13T12:53:57.301Z,99940.31
2023-01-13T12:56:31.915Z,99940.16
2023-01-13T12:59:39.053Z,99942.63
2023-01-13T13:02:35.650Z,99950.44
2023-01-13T13:05:47.696Z,99958.97
2023-01-13T13:08:24.171Z,99961.34
2023-01-13T13:11:03.440Z,99957.66
2023-01-13T13:13:46.264Z,99959.28
2023-01-13T13:16:37.707Z,99958.53
2023-01-13T13:19:43.702Z,99957.94
2023-01-13T13:22:19.801Z,99960.75
2023-01-13T13:25:20.705Z,99964.09
2023-01-13T13:27:56.785Z,99972.84
2023-01-13T13:30:29.023Z,99975.00
2023-01-13T13:33:09.741Z,99978.19
2023-01-13T13:35:43.961Z,99978.53
2023-01-13T13:38:46.691Z,99989.13
2023-01-13T13:41:39.079Z,99985.13
2023-01-13T13:44:32.943Z,99991.56
2023-01-13T13:47:03.662Z,99987.44
2023-01-13T13:49:41.154Z,99989.81
2023-01-13T13:52:15.323Z,99998.59
2023-01-13T13:54:47.612Z,99978.53
2023-01-13T13:57:18.740Z,99984.47
2023-01-13T13:59:46.461Z,99984.97
2023-01-13T14:02:20.982Z,99988.16
2023-01-13T14:04:48.838Z,99993.63
2023-01-13T14:07:20.517Z,99985.41
2023-01-13T14:09:50.903Z,99993.19
2023-01-13T14:12:22.234Z,99990.19
2023-01-13T14:14:50.953Z,99989.31
2023-01-13T14:17:24.974Z,99991.28
2023-01-13T14:19:54.664Z,100007.88
2023-01-13T14:22:22.381Z,99996.13
2023-01-13T14:24:55.340Z,99987.94
2023-01-13T14:27:27.459Z,99980.38
2023-01-13T14:29:58.056Z,99983.97
2023-01-13T14:32:32.828Z,99989.75
2023-01-13T14:35:00.499Z,100003.91
2023-01-13T14:37:35.000Z,100003.13
2023-01-13T14:40:02.814Z,99993.25
2023-01-13T14:42:35.254Z,99995.22
2023-01-13T14:45:03.378Z,99999.53
2023-01-13T14:47:33.839Z,100002.09
2023-01-13T14:50:03.699Z,100002.53
2023-01-13T14:52:33.865Z,99989.25
2023-01-13T14:55:24.901Z,99989.16
2023-01-13T14:57:54.030Z,99989.81
2023-01-13T15:00:24.804Z,99999.16
2023-01-13T15:03:07.200Z,100004.03
2023-01-13T15:05:42.476Z,100008.47
2023-01-13T15:08:30.594Z,100006.56
2023-01-13T15:11:00.808Z,100006.56
2023-01-13T15:13:37.292Z,100008.81
2023-01-13T15:16:07.995Z,99996.31
2023-01-13T15:18:39.884Z,100003.38
2023-01-13T15:21:08.131Z,100005.06
2023-01-13T15:23:35.910Z,100009.19
2023-01-13T15:26:03.859Z,100019.03
2023-01-13T15:28:33.139Z,100010.84
2023-01-13T15:31:03.549Z,100016.06
2023-01-13T15:33:31.236Z,100021.84
2023-01-13T15:35:59.484Z,100029.53
2023-01-13T15:38:27.137Z,100039.38
2023-01-13T15:40:54.954Z,100042.38
2023-01-13T15:43:42.031Z,100036.16
2023-01-13T15:46:33.124Z,100053.94
2023-01-13T15:49:12.807Z,100047.97
2023-01-13T15:51:41.033Z,100050.22
2023-01-13T15:54:09.345Z,100053.19
2023-01-13T15:56:37.995Z,100051.31
2023-01-13T15:59:06.243Z,100054.31
2023-01-13T16:01:35.282Z,100042.28
2023-01-13T16:04:03.123Z,100057.06
2023-01-13T16:06:33.166Z,100045.88
2023-01-13T16:09:02.879Z,100054.88
2023-01-13T16:11:31.313Z,100057.34
2023-01-13T16:13:59.069Z,100063.13
2023-01-13T16:16:28.930Z,100057.66
2023-01-13T16:18:58.425Z,100058.50
2023-01-13T16:21:26.169Z,100066.16
2023-01-13T16:23:53.824Z,100061.25
2023-01-13T16:26:23.919Z,100065.63
2023-01-13T16:28:52.863Z,100062.63
2023-01-13T16:31:25.204Z,100068.91
2023-01-13T16:33:53.759Z,100081.50
2023-01-13T16:36:23.133Z,100081.25
2023-01-13T16:38:52.295Z,100077.19
2023-01-13T16:41:20.437Z,100084.28
2023-01-13T16:43:48.902Z,100091.09
2023-01-13T16:46:27.306Z,100091.38
2023-01-13T16:48:57.197Z,100097.13
2023-01-13T16:51:26.340Z,100099.59
2023-01-13T16:53:54.019Z,100100.44
2023-01-13T16:56:26.291Z,100086.75
2023-01-13T16:58:56.005Z,100093.63
2023-01-13T17:01:26.362Z,100101.84
2023-01-13T17:03:54.486Z,100090.91
2023-01-13T17:06:29.380Z,100108.13
2023-01-13T17:09:02.055Z,100101.63
2023-01-13T17:11:29.771Z,100096.97
2023-01-13T17:13:57.462Z,100108.19
2023-01-13T17:16:26.137Z,100110.09
2023-01-13T17:18:54.325Z,100119.66
2023-01-13T17:21:21.986Z,100111.72
2023-01-13T17:23:51.553Z,100115.03
2023-01-13T17:26:33.236Z,100108.75
2023-01-13T17:29:01.941Z,100120.50
2023-01-13T17:31:30.630Z,100112.88
2023-01-13T17:33:58.573Z,100108.75
2023-01-13T17:36:26.295Z,100105.22
2023-01-13T17:38:56.078Z,100116.69
2023-01-13T17:41:24.093Z,100129.00
2023-01-13T17:43:52.620Z,100129.00
2023-01-13T17:46:22.767Z,100124.34
2023-01-13T17:48:52.609Z,100124.63
2023-01-13T17:51:24.941Z,100119.44
2023-01-13T17:53:55.588Z,100128.47
2023-01-13T17:56:25.111Z,100125.47
2023-01-13T17:58:52.879Z,100127.09
2023-01-13T18:01:22.416Z,100130.09
2023-01-13T18:03:50.375Z,100137.47
2023-01-13T18:06:19.700Z,100127.88
2023-01-13T18:08:48.220Z,100127.09
2023-01-13T18:11:19.668Z,100131.72
2023-01-13T18:13:47.419Z,100142.94
2023-01-13T18:16:17.024Z,100127.34
2023-01-13T18:18:46.782Z,100127.88
2023-01-13T18:21:36.836Z,100144.81
2023-01-13T18:24:18.634Z,100142.09
2023-01-13T18:27:05.345Z,100142.94
2023-01-13T18:29:33.101Z,100144.28
2023-01-13T18:32:00.834Z,100146.75
2023-01-13T18:34:28.566Z,100148.66
2023-01-13T18:36:56.253Z,100148.94
2023-01-13T18:39:23.920Z,100153.03
2023-01-13T18:42:10.400Z,100151.69
2023-01-13T18:44:38.132Z,100156.84
2023-01-13T18:47:06.046Z,100173.75
2023-01-13T18:49:33.692Z,100158.78
2023-01-13T18:52:01.483Z,100164.78
2023-01-13T18:54:29.103Z,100175.16
2023-01-13T18:56:58.198Z,100174.06
2023-01-13T18:59:26.278Z,100168.59
2023-01-13T19:01:54.075Z,100166.97
2023-01-13T19:04:21.831Z,100172.41
2023-01-13T19:06:51.523Z,100178.44
2023-01-13T19:09:22.614Z,100184.44
2023-01-13T19:11:51.389Z,100192.88
2023-01-13T19:14:34.881Z,100201.91
2023-01-13T19:17:03.029Z,100195.63
2023-01-13T19:19:31.205Z,100197.53
2023-01-13T19:21:58.914Z,100201.34
2023-01-13T19:24:26.933Z,100197.28
2023-01-13T19:26:55.002Z,100203.53
2023-01-13T19:29:24.079Z,100209.56
2023-01-13T19:31:51.761Z,100203.53
2023-01-13T19:34:19.606Z,100210.09
2023-01-13T19:36:47.297Z,100210.91
2023-01-13T19:39:15.000Z,100231.13
2023-01-13T19:42:00.253Z,100234.41
2023-01-13T19:44:46.734Z,100229.75
2023-01-13T19:47:14.527Z,100224.28
2023-01-13T19:49:42.253Z,100232.47
2023-01-13T19:52:09.920Z,100235.75
2023-01-13T19:54:37.772Z,100243.41
2023-01-13T19:57:05.682Z,100247.78
2023-01-13T19:59:35.374Z,100260.63
2023-01-13T20:02:04.555Z,100260.31
2023-01-13T20:04:38.287Z,100255.97
2023-01-13T20:07:07.157Z,100266.88
2023-01-13T20:09:35.675Z,100261.16
2023-01-13T20:12:05.605Z,100272.34
2023-01-13T20:14:34.648Z,100272.38
2023-01-13T20:17:02.249Z,100279.19
2023-01-13T20:19:29.915Z,100288.72
2023-01-13T20:21:57.616Z,100292.28
2023-01-13T20:24:26.106Z,100289.28
2023-01-13T20:26:55.008Z,100305.13
2023-01-13T20:29:23.678Z,100294.19
2023-01-13T20:31:52.723Z,100303.22
2023-01-13T20:34:21.185Z,100299.94
2023-01-13T20:36:50.800Z,100305.38
2023-01-13T20:39:20.010Z,100305.41
2023-01-13T20:42:05.592Z,100307.28
2023-01-13T20:44:33.289Z,100306.50
2023-01-13T20:47:02.886Z,100310.56
2023-01-13T20:49:31.290Z,100307.84
2023-01-13T20:51:59.243Z,100307.59
2023-01-13T20:54:27.232Z,100308.94
2023-01-13T20:56:55.152Z,100304.31
2023-01-13T20:59:23.840Z,100305.66
2023-01-13T21:01:51.544Z,100304.03
2023-01-13T21:04:20.585Z,100311.94
2023-01-13T21:06:49.748Z,100320.69
2023-01-13T21:09:17.375Z,100324.47
2023-01-13T21:12:02.466Z,100315.75
2023-01-13T21:14:47.644Z,100320.41
2023-01-13T21:17:39.566Z,100310.28
2023-01-13T21:20:10.352Z,100313.56
2023-01-13T21:22:38.984Z,100316.03
2023-01-13T21:25:07.813Z,100319.31
2023-01-13T21:27:35.453Z,100322.84
2023-01-13T21:30:03.062Z,100318.75
2023-01-13T21:32:30.765Z,100322.59
2023-01-13T21:34:58.857Z,100330.19
2023-01-13T21:37:27.877Z,100338.97
2023-01-13T21:39:55.554Z,100343.28
2023-01-13T21:42:40.639Z,100359.72
2023-01-13T21:45:28.352Z,100350.69
2023-01-13T21:47:56.493Z,100356.91
2023-01-13T21:50:25.706Z,100342.97
2023-01-13T21:52:55.565Z,100355.56
2023-01-13T21:55:28.175Z,100360.19
2023-01-13T21:57:57.539Z,100362.13
2023-01-13T22:00:26.906Z,100353.91
2023-01-13T22:02:54.967Z,100373.56
2023-01-13T22:05:24.080Z,100357.19
2023-01-13T22:07:52.733Z,100358.50
2023-01-13T22:10:24.017Z,100364.53
2023-01-13T22:12:54.143Z,100375.72
2023-01-13T22:15:22.618Z,100363.97
2023-01-13T22:17:52.299Z,100369.19
2023-01-13T22:20:20.580Z,100373.53
2023-01-13T22:22:48.730Z,100378.97
2023-01-13T22:25:19.922Z,100371.09
2023-01-13T22:27:49.192Z,100371.91
2023-01-13T22:30:18.830Z,100380.91
2023-01-13T22:32:47.314Z,100383.34
2023-01-13T22:35:16.598Z,100386.34
2023-01-13T22:37:44.547Z,100392.34
2023-01-13T22:40:13.251Z,100387.97
2023-01-13T22:42:41.897Z,100390.69
2023-01-13T22:45:13.606Z,100398.06
2023-01-13T22:47:41.393Z,100395.59
2023-01-13T22:50:12.428Z,100392.06
2023-01-13T22:52:40.125Z,100395.91
2023-01-13T22:55:08.740Z,100415.78
2023-01-13T22:57:47.349Z,100410.31
2023-01-13T23:00:19.618Z,100414.13
2023-01-13T23:02:47.425Z,100425.56
2023-01-13T23:05:15.223Z,100427.19
2023-01-13T23:07:42.923Z,100423.88
2023-01-13T23:10:11.656Z,100431.28
2023-01-13T23:12:39.347Z,100435.91
2023-01-13T23:15:07.705Z,100423.38
2023-01-13T23:17:36.759Z,100429.09
2023-01-13T23:20:04.717Z,100439.69
2023-01-13T23:22:32.320Z,100433.09
2023-01-13T23:25:00.015Z,100438.25
2023-01-13T23:27:27.649Z,100431.69
2023-01-13T23:29:56.122Z,100430.66
2023-01-13T23:32:23.920Z,100433.09
2023-01-13T23:34:52.894Z,100432.81
2023-01-13T23:37:20.631Z,100437.44
2023-01-13T23:39:48.315Z,100432.53
2023-01-13T23:42:16.104Z,100432.78
2023-01-13T23:44:43.894Z,100428.13
2023-01-13T23:47:11.956Z,100444.78
2023-01-13T23:49:40.851Z,100442.56
2023-01-13T23:52:09.962Z,100454.00
2023-01-13T23:54:37.742Z,100433.00
2023-01-13T23:57:05.602Z,100439.53
2023-01-13T23:59:33.262Z,100443.34
